Time;durP1;ratioP1;P1;durP2;ratioP2;P2;SDS_P1;SDS_P2;PMS_P1;PMS_P2;Temp;Humidity;BMP_temperature;BMP_pressure;BME280_temperature;BME280_humidity;BME280_pressure;Samples;Min_cycle;Max_cycle;Signal;HPM_P1;HPM_P2
2023/05/31 00:01:02;;;;;;;;;17.00;15.33;;;;;17.49;55.79;101884.06;6214055;22;45391;-58
2023/05/31 00:03:27;;;;;;;;;18.33;17.67;;;;;17.46;55.58;101878.88;6214734;22;45340;-58
2023/05/31 00:05:52;;;;;;;;;18.33;15.67;;;;;17.44;57.00;101875.41;6213330;22;68806;-59
2023/05/31 00:08:18;;;;;;;;;24.67;17.33;;;;;17.43;56.38;101865.59;6187152;22;47100;-59
2023/05/31 00:10:44;;;;;;;;;21.00;19.00;;;;;17.40;56.21;101873.88;6214020;22;58857;-59
2023/05/31 00:13:09;;;;;;;;;23.33;17.67;;;;;17.35;57.52;101875.03;6214524;22;45323;-59
2023/05/31 00:15:35;;;;;;;;;19.67;17.33;;;;;17.32;56.36;101874.34;6214268;22;45521;-58
2023/05/31 00:18:00;;;;;;;;;22.00;19.00;;;;;17.29;56.62;101875.41;6214063;22;45533;-58
2023/05/31 00:20:25;;;;;;;;;20.67;18.33;;;;;17.27;56.61;101873.75;6214880;22;45272;-58
2023/05/31 00:22:51;;;;;;;;;18.00;16.67;;;;;17.23;56.50;101878.47;6214257;22;45454;-58
2023/05/31 00:25:16;;;;;;;;;19.00;17.67;;;;;17.22;56.94;101879.41;6214118;22;53531;-58
2023/05/31 00:27:41;;;;;;;;;22.33;20.00;;;;;17.21;56.99;101880.41;6187181;22;45352;-58
2023/05/31 00:30:07;;;;;;;;;25.00;18.00;;;;;16.96;57.37;101873.81;6187284;22;45289;-58
2023/05/31 00:32:33;;;;;;;;;19.67;18.67;;;;;16.87;57.40;101880.56;6181912;23;45194;-58
2023/05/31 00:34:58;;;;;;;;;17.00;16.67;;;;;16.87;58.73;101879.72;6207548;22;45454;-58
2023/05/31 00:37:23;;;;;;;;;9.33;6.67;;;;;16.86;58.03;101883.34;6183550;22;46363;-58
2023/05/31 00:39:49;;;;;;;;;19.33;16.67;;;;;17.07;57.15;101891.97;6207866;22;47792;-58
2023/05/31 00:42:14;;;;;;;;;24.00;21.00;;;;;17.09;57.62;101876.63;6183791;22;45335;-58
2023/05/31 00:44:39;;;;;;;;;22.33;17.00;;;;;17.06;57.63;101879.47;6184343;22;45414;-58
2023/05/31 00:47:05;;;;;;;;;22.67;20.00;;;;;16.74;58.19;101884.06;6180999;23;46293;-58
2023/05/31 00:49:31;;;;;;;;;26.00;22.33;;;;;16.70;57.60;101876.19;6183599;23;45482;-58
2023/05/31 00:51:56;;;;;;;;;24.00;20.00;;;;;16.90;59.41;101875.97;6207385;22;45320;-58
2023/05/31 00:54:22;;;;;;;;;22.00;21.00;;;;;16.97;58.91;101872.88;6206517;22;68010;-59
2023/05/31 00:56:47;;;;;;;;;17.00;17.00;;;;;16.96;57.55;101865.75;6184263;22;59438;-59
2023/05/31 00:59:14;;;;;;;;;18.67;18.67;;;;;16.94;57.60;101870.34;6184510;23;45394;-59
2023/05/31 01:01:39;;;;;;;;;20.33;18.33;;;;;16.93;57.16;101871.28;6208591;22;45404;-59
2023/05/31 01:04:05;;;;;;;;;21.67;21.67;;;;;16.92;58.28;101856.16;6208120;22;45244;-59
2023/05/31 01:06:32;;;;;;;;;24.33;19.00;;;;;16.90;57.72;101866.13;6184378;22;71201;-59
2023/05/31 01:08:59;;;;;;;;;23.00;18.67;;;;;16.89;58.51;101868.88;6184282;22;45289;-59
2023/05/31 01:11:51;;;;;;;;;25.67;24.33;;;;;16.85;57.31;101860.13;6185055;22;45319;-59
2023/05/31 01:14:35;;;;;;;;;23.33;23.33;;;;;16.90;57.95;101860.75;6185249;23;45329;-59
2023/05/31 01:17:22;;;;;;;;;18.33;17.67;;;;;16.89;57.96;101853.59;6183878;22;46115;-59
2023/05/31 01:19:54;;;;;;;;;21.00;17.67;;;;;16.88;58.30;101851.84;6183320;23;45349;-59
2023/05/31 01:22:56;;;;;;;;;23.67;21.67;;;;;16.85;57.73;101846.69;6183111;23;45237;-59
2023/05/31 01:25:27;;;;;;;;;23.67;20.67;;;;;16.83;57.80;101844.09;6159448;23;45328;-59
2023/05/31 01:27:54;;;;;;;;;19.67;19.00;;;;;16.81;57.47;101848.69;6207079;22;45364;-59
2023/05/31 01:30:21;;;;;;;;;24.00;23.00;;;;;16.81;57.75;101845.16;6184746;23;45433;-59
2023/05/31 01:32:47;;;;;;;;;21.33;21.33;;;;;16.82;58.06;101845.03;6211254;22;45312;-59
2023/05/31 01:35:13;;;;;;;;;21.33;21.00;;;;;16.82;57.54;101841.50;6215129;22;45489;-59
2023/05/31 01:37:39;;;;;;;;;25.00;20.67;;;;;16.81;57.76;101837.09;6214826;22;46355;-59
2023/05/31 01:40:05;;;;;;;;;21.67;19.33;;;;;16.80;58.08;101836.19;6214776;22;45310;-59
2023/05/31 01:42:30;;;;;;;;;21.33;18.67;;;;;16.77;58.13;101830.16;6188123;22;45219;-59
2023/05/31 01:44:56;;;;;;;;;22.00;21.00;;;;;16.74;57.56;101831.22;6187184;22;61841;-59
2023/05/31 01:47:22;;;;;;;;;21.67;17.00;;;;;16.73;57.65;101829.47;6186976;22;68347;-59
2023/05/31 01:49:48;;;;;;;;;26.33;22.00;;;;;16.73;57.14;101832.16;6215306;22;45826;-59
2023/05/31 01:52:15;;;;;;;;;20.33;17.67;;;;;16.73;58.64;101825.94;6214189;22;46896;-59
2023/05/31 01:54:40;;;;;;;;;21.00;19.00;;;;;16.70;58.59;101825.16;6215374;22;45356;-59
2023/05/31 01:57:06;;;;;;;;;26.33;22.33;;;;;16.65;58.57;101816.50;6213455;22;71815;-59
2023/05/31 01:59:35;;;;;;;;;26.67;22.67;;;;;16.62;58.81;101826.56;6215508;22;45261;-59
2023/05/31 02:02:02;;;;;;;;;23.00;22.00;;;;;16.59;58.94;101822.22;6187372;22;45364;-59
2023/05/31 02:04:28;;;;;;;;;19.00;19.00;;;;;16.56;60.37;101833.16;6215095;22;45275;-59
2023/05/31 02:06:53;;;;;;;;;19.67;19.67;;;;;16.53;59.68;101822.59;6213330;22;66704;-59
2023/05/31 02:09:20;;;;;;;;;23.00;21.33;;;;;16.50;59.38;101823.66;6214907;22;45299;-59
2023/05/31 02:11:45;;;;;;;;;20.67;19.67;;;;;16.45;59.97;101828.44;6215261;22;45813;-59
2023/05/31 02:14:11;;;;;;;;;25.00;23.33;;;;;16.46;58.88;101818.56;6213752;22;64957;-59
2023/05/31 02:16:36;;;;;;;;;24.67;21.67;;;;;16.46;59.73;101822.09;6214927;22;46036;-59
2023/05/31 02:19:02;;;;;;;;;21.33;20.00;;;;;16.45;58.85;101817.69;6213929;22;69510;-59
2023/05/31 02:21:28;;;;;;;;;26.00;23.33;;;;;16.45;60.02;101819.50;6215068;22;45515;-59
2023/05/31 02:23:53;;;;;;;;;19.33;18.67;;;;;16.44;59.61;101817.75;6214787;22;45383;-58
2023/05/31 02:26:19;;;;;;;;;21.67;19.33;;;;;16.40;58.65;101814.41;6213354;22;72065;-59
2023/05/31 02:28:44;;;;;;;;;20.67;20.67;;;;;16.38;60.17;101810.94;6215055;22;45704;-59
2023/05/31 02:31:10;;;;;;;;;24.67;20.67;;;;;16.33;60.02;101813.88;6213976;22;45240;-59
2023/05/31 02:33:35;;;;;;;;;19.67;17.67;;;;;16.28;59.55;101813.31;6214255;22;67197;-59
2023/05/31 02:36:01;;;;;;;;;26.67;24.33;;;;;16.25;61.04;101807.25;6187147;22;54911;-59
2023/05/31 02:38:28;;;;;;;;;24.67;22.33;;;;;16.20;59.46;101808.41;6188008;22;45310;-59
2023/05/31 02:40:53;;;;;;;;;30.33;23.33;;;;;16.17;60.26;101807.69;6214793;22;45361;-59
2023/05/31 02:43:18;;;;;;;;;23.00;22.33;;;;;16.17;59.51;101813.06;6214813;22;45319;-59
2023/05/31 02:45:44;;;;;;;;;22.67;21.00;;;;;16.16;60.52;101811.34;6188281;22;46217;-59
2023/05/31 02:48:09;;;;;;;;;27.00;24.33;;;;;16.16;60.29;101811.34;6187172;22;45388;-59
2023/05/31 02:50:35;;;;;;;;;24.67;24.67;;;;;16.14;60.50;101813.22;6215384;22;45449;-59
2023/05/31 02:53:03;;;;;;;;;23.33;21.00;;;;;16.12;61.33;101807.09;6213708;22;45311;-59
2023/05/31 02:55:29;;;;;;;;;22.00;22.00;;;;;16.09;60.60;101809.94;6214546;22;45288;-59
2023/05/31 02:57:54;;;;;;;;;28.33;24.67;;;;;16.06;60.47;101815.50;6213714;22;45718;-58
2023/05/31 03:00:20;;;;;;;;;19.00;18.67;;;;;16.02;61.77;101809.44;6214158;22;63495;-58
2023/05/31 03:02:45;;;;;;;;;24.00;23.00;;;;;16.03;60.62;101814.72;6215195;22;45296;-58
2023/05/31 03:05:11;;;;;;;;;27.67;23.00;;;;;16.04;60.88;101813.75;6213702;22;61347;-58
2023/05/31 03:07:36;;;;;;;;;25.67;23.33;;;;;16.03;60.91;101812.06;6214461;22;46340;-58
2023/05/31 03:10:05;;;;;;;;;27.00;23.33;;;;;16.03;60.40;101809.38;6213731;22;49315;-58
2023/05/31 03:12:31;;;;;;;;;26.33;23.33;;;;;16.03;60.86;101805.81;6188969;22;45668;-58
2023/05/31 03:14:56;;;;;;;;;27.33;24.00;;;;;16.04;60.68;101800.34;6162301;22;46656;-58
2023/05/31 03:17:22;;;;;;;;;18.33;17.33;;;;;16.04;61.75;101799.50;6214740;22;45656;-58
2023/05/31 03:19:47;;;;;;;;;24.33;22.00;;;;;16.03;60.62;101804.00;6214343;22;45660;-58
2023/05/31 03:22:12;;;;;;;;;22.33;21.00;;;;;16.03;60.28;101800.44;6212920;22;62515;-58
2023/05/31 03:24:38;;;;;;;;;28.00;24.33;;;;;16.02;59.95;101801.38;6186255;22;75360;-58
2023/05/31 03:27:03;;;;;;;;;22.33;20.00;;;;;16.03;60.53;101803.13;6213440;22;50744;-59
2023/05/31 03:29:29;;;;;;;;;28.67;22.33;;;;;16.01;60.09;101800.53;6215136;22;45293;-59
2023/05/31 03:31:54;;;;;;;;;23.33;23.00;;;;;16.02;60.82;101799.56;6213871;22;45423;-59
2023/05/31 03:34:21;;;;;;;;;26.00;25.33;;;;;16.02;61.52;101798.69;6214794;22;45558;-59
2023/05/31 03:36:46;;;;;;;;;26.33;23.00;;;;;15.99;60.23;101805.09;6214604;22;45296;-59
2023/05/31 03:39:12;;;;;;;;;23.00;22.00;;;;;15.98;60.24;101806.09;6187015;22;45687;-59
2023/05/31 03:41:37;;;;;;;;;26.67;23.00;;;;;15.96;60.29;101801.75;6163076;22;45288;-59
2023/05/31 03:44:02;;;;;;;;;21.00;20.67;;;;;15.99;60.84;101807.78;6212902;22;66468;-59
2023/05/31 03:46:28;;;;;;;;;28.00;25.67;;;;;15.95;60.67;101803.56;6214080;22;66463;-59
2023/05/31 03:48:53;;;;;;;;;29.00;25.33;;;;;15.90;61.22;101805.63;6187782;22;45280;-59
2023/05/31 03:51:18;;;;;;;;;25.00;22.67;;;;;15.91;60.55;101802.00;6214507;22;62337;-59
2023/05/31 03:53:44;;;;;;;;;23.00;18.33;;;;;15.93;60.54;101808.16;6186410;22;72064;-59
2023/05/31 03:56:09;;;;;;;;;19.67;19.00;;;;;15.93;60.63;101809.97;6214314;22;45325;-59
2023/05/31 03:58:35;;;;;;;;;29.00;25.67;;;;;15.96;60.74;101810.66;6213768;22;64626;-60
2023/05/31 04:01:00;;;;;;;;;27.33;24.67;;;;;15.97;61.15;101816.88;6214109;22;45367;-59
2023/05/31 04:03:26;;;;;;;;;26.00;24.33;;;;;15.95;60.89;101813.44;6214582;22;46301;-59
2023/05/31 04:05:51;;;;;;;;;26.33;20.67;;;;;15.95;60.77;101819.66;6213873;22;45377;-59
2023/05/31 04:08:17;;;;;;;;;22.67;22.33;;;;;15.96;60.51;101817.84;6187317;22;45456;-59
2023/05/31 04:10:42;;;;;;;;;24.67;23.67;;;;;15.96;60.98;101818.69;6187917;22;46055;-59
2023/05/31 04:13:08;;;;;;;;;29.67;27.33;;;;;15.95;61.01;101814.28;6212715;22;73837;-59
2023/05/31 04:15:33;;;;;;;;;25.00;23.67;;;;;15.97;60.09;101819.56;6214527;22;45345;-59
2023/05/31 04:17:58;;;;;;;;;27.33;25.67;;;;;15.97;60.39;101815.06;6213354;22;66435;-59
2023/05/31 04:20:24;;;;;;;;;24.00;21.67;;;;;15.99;60.17;101826.56;6213530;22;64947;-59
2023/05/31 04:22:50;;;;;;;;;28.67;25.67;;;;;15.98;60.52;101821.28;6187172;22;45576;-59
2023/05/31 04:25:17;;;;;;;;;31.00;24.67;;;;;15.99;61.23;101820.34;6214396;22;45526;-59
2023/05/31 04:27:43;;;;;;;;;24.33;22.00;;;;;15.99;61.15;101820.34;6187874;22;45433;-59
2023/05/31 04:30:08;;;;;;;;;25.67;22.00;;;;;15.97;61.21;101816.88;6213668;22;51076;-59
2023/05/31 04:32:34;;;;;;;;;27.00;23.33;;;;;15.97;60.82;101824.91;6186953;22;45463;-63
2023/05/31 04:35:03;;;;;;;;;23.67;22.00;;;;;15.98;61.41;101816.81;6213672;22;45293;-59
2023/05/31 04:37:32;;;;;;;;;26.67;23.00;;;;;16.00;60.54;101820.25;6214446;22;45335;-59
2023/05/31 04:39:59;;;;;;;;;25.00;23.33;;;;;16.02;60.93;101822.84;6214504;22;45475;-59
2023/05/31 04:42:25;;;;;;;;;24.00;22.33;;;;;16.04;60.87;101824.50;6161604;22;47524;-59
2023/05/31 04:44:51;;;;;;;;;28.67;23.67;;;;;16.10;60.65;101817.94;6187558;22;45325;-59
2023/05/31 04:47:18;;;;;;;;;25.67;23.33;;;;;16.17;61.11;101818.44;6214838;22;45414;-58
2023/05/31 04:49:45;;;;;;;;;24.00;22.33;;;;;16.21;60.69;101822.66;6214617;22;45542;-58
2023/05/31 04:52:11;;;;;;;;;25.67;24.33;;;;;16.23;60.34;101814.53;6213746;22;46050;-59
2023/05/31 04:54:36;;;;;;;;;23.33;22.67;;;;;16.27;60.60;101816.94;6214498;22;45301;-58
2023/05/31 04:57:02;;;;;;;;;25.67;24.00;;;;;16.31;60.01;101821.19;6213874;22;51888;-59
2023/05/31 04:59:28;;;;;;;;;27.00;22.33;;;;;16.34;59.93;101829.03;6214363;22;45367;-59
2023/05/31 05:01:53;;;;;;;;;22.67;22.00;;;;;16.38;60.01;101819.84;6213671;22;60403;-60
2023/05/31 05:04:18;;;;;;;;;27.33;26.67;;;;;16.42;60.17;101814.31;6214282;22;50951;-59
2023/05/31 05:06:44;;;;;;;;;25.33;24.67;;;;;16.45;59.54;101825.75;6187332;22;45277;-59
2023/05/31 05:09:09;;;;;;;;;26.67;22.33;;;;;16.49;59.80;101829.09;6161370;22;45503;-59
2023/05/31 05:11:35;;;;;;;;;20.33;18.33;;;;;16.54;60.05;101829.69;6214596;22;47728;-59
2023/05/31 05:14:00;;;;;;;;;29.00;25.33;;;;;16.58;59.08;101825.88;6213956;22;45270;-59
2023/05/31 05:16:26;;;;;;;;;27.00;22.67;;;;;16.63;59.20;101823.78;6214572;22;45423;-59
2023/05/31 05:18:51;;;;;;;;;21.33;20.33;;;;;16.68;59.25;101819.00;6214098;22;45602;-59
2023/05/31 05:21:16;;;;;;;;;25.33;24.00;;;;;16.75;58.81;101821.31;6187184;22;46119;-59
2023/05/31 05:23:42;;;;;;;;;21.33;21.33;;;;;16.79;59.19;101823.75;6186089;22;71901;-59
2023/05/31 05:26:07;;;;;;;;;21.67;20.00;;;;;16.86;58.58;101818.88;6186450;22;45459;-59
2023/05/31 05:28:33;;;;;;;;;22.67;18.67;;;;;16.92;58.66;101821.22;6213586;22;45327;-59
2023/05/31 05:30:58;;;;;;;;;28.33;22.67;;;;;16.96;58.64;101806.63;6186063;22;47423;-59
2023/05/31 05:33:23;;;;;;;;;22.00;21.67;;;;;17.05;58.17;101809.72;6212651;22;58358;-59
2023/05/31 05:35:49;;;;;;;;;21.67;18.33;;;;;17.10;58.17;101829.94;6186868;22;45754;-59
2023/05/31 05:38:14;;;;;;;;;19.67;17.33;;;;;17.16;58.02;101820.66;6213397;22;45348;-59
2023/05/31 05:40:39;;;;;;;;;27.33;21.33;;;;;17.26;57.45;101819.13;6186519;22;53106;-59
2023/05/31 05:43:05;;;;;;;;;22.67;17.67;;;;;17.34;57.50;101822.19;6212061;22;55222;-59
2023/05/31 05:45:30;;;;;;;;;26.33;22.00;;;;;17.39;57.18;101823.72;6215774;22;45637;-59
2023/05/31 05:47:56;;;;;;;;;26.00;25.00;;;;;17.45;57.05;101831.44;6188381;22;45298;-59
2023/05/31 05:50:21;;;;;;;;;25.00;21.33;;;;;17.50;57.05;101835.53;6188278;22;46304;-59
2023/05/31 05:52:47;;;;;;;;;23.33;20.33;;;;;17.55;56.60;101829.00;6215182;22;45372;-60
2023/05/31 05:55:12;;;;;;;;;26.00;21.00;;;;;17.66;56.42;101827.38;6214112;22;66567;-59
2023/05/31 05:57:37;;;;;;;;;18.00;17.33;;;;;17.77;55.97;101832.06;6214551;22;60147;-59
2023/05/31 06:00:23;;;;;;;;;25.67;24.67;;;;;17.86;55.81;101828.78;6188017;22;45338;-59
2023/05/31 06:02:49;;;;;;;;;26.00;22.67;;;;;17.95;55.94;101831.88;6192327;22;45431;-59
2023/05/31 06:05:14;;;;;;;;;18.00;17.67;;;;;18.00;55.62;101825.25;6187997;22;45335;-60
2023/05/31 06:07:40;;;;;;;;;25.00;21.67;;;;;18.11;55.18;101826.38;6215328;22;45599;-60
2023/05/31 06:10:06;;;;;;;;;23.33;22.00;;;;;18.16;54.96;101830.47;6214725;22;47087;-59
2023/05/31 06:12:31;;;;;;;;;20.33;18.00;;;;;18.28;54.85;101825.25;6187769;22;45368;-60
2023/05/31 06:14:57;;;;;;;;;22.67;20.33;;;;;18.42;54.52;101827.88;6187952;22;45332;-59
2023/05/31 06:17:22;;;;;;;;;20.00;16.33;;;;;18.54;54.17;101823.50;6188099;22;45531;-59
2023/05/31 06:19:48;;;;;;;;;19.67;17.33;;;;;18.67;53.71;101827.06;6215242;22;45685;-60
2023/05/31 06:22:13;;;;;;;;;23.33;18.67;;;;;18.78;53.08;101825.47;6210435;22;71233;-60
2023/05/31 06:24:40;;;;;;;;;19.00;17.33;;;;;18.83;52.38;101823.31;6212195;22;53422;-60
2023/05/31 06:27:06;;;;;;;;;14.67;14.67;;;;;19.01;52.15;101821.22;6213345;22;45328;-60
2023/05/31 06:29:32;;;;;;;;;19.67;17.67;;;;;19.14;51.78;101822.06;6214681;22;45400;-60
2023/05/31 06:31:57;;;;;;;;;18.00;14.00;;;;;19.33;51.44;101808.16;6186793;22;45655;-60
2023/05/31 06:34:23;;;;;;;;;17.00;16.33;;;;;20.12;51.13;101813.25;6214574;22;45464;-60
2023/05/31 06:36:48;;;;;;;;;20.00;17.67;;;;;21.41;49.33;101814.25;6209833;22;60137;-60
2023/05/31 06:39:14;;;;;;;;;19.67;15.67;;;;;22.70;47.45;101818.16;6207323;22;46113;-59
2023/05/31 06:41:39;;;;;;;;;17.33;16.67;;;;;24.08;45.85;101815.94;6185179;22;45336;-59
2023/05/31 06:44:04;;;;;;;;;13.33;12.33;;;;;25.74;40.14;101814.75;6182850;22;45396;-60
2023/05/31 06:46:30;;;;;;;;;20.00;15.33;;;;;27.09;40.40;101812.06;6213478;22;45801;-60
2023/05/31 06:48:55;;;;;;;;;17.00;17.00;;;;;28.29;39.18;101813.91;6212245;22;45912;-59
2023/05/31 06:51:22;;;;;;;;;16.50;14.50;;;;;29.28;32.51;101814.72;6188573;22;45807;-59
2023/05/31 06:53:48;;;;;;;;;18.67;14.67;;;;;30.01;33.16;101809.94;6187927;22;45302;-60
2023/05/31 06:56:14;;;;;;;;;18.33;16.67;;;;;30.69;33.13;101814.75;6187104;22;45419;-59
2023/05/31 06:58:40;;;;;;;;;15.00;13.67;;;;;31.40;33.25;101808.00;6187626;22;45376;-62
2023/05/31 07:01:06;;;;;;;;;15.67;15.33;;;;;32.29;31.68;101817.97;6187712;22;45725;-58
2023/05/31 07:03:31;;;;;;;;;16.00;12.67;;;;;33.08;31.13;101807.81;6188426;22;45620;-61
2023/05/31 07:05:57;;;;;;;;;14.67;12.33;;;;;33.81;29.79;101801.84;6186125;22;45182;-58
2023/05/31 07:08:22;;;;;;;;;15.67;13.33;;;;;34.42;27.04;101809.19;6213861;22;53855;-59
2023/05/31 07:10:47;;;;;;;;;13.67;12.67;;;;;34.88;27.81;101810.22;6159641;22;64127;-61
2023/05/31 07:13:13;;;;;;;;;15.67;13.67;;;;;35.46;27.21;101800.31;6160255;22;45341;-59
2023/05/31 07:15:38;;;;;;;;;17.00;11.33;;;;;36.02;25.40;101798.78;6187813;22;45358;-58
2023/05/31 07:18:04;;;;;;;;;12.33;12.00;;;;;36.55;24.43;101796.69;6186812;22;46174;-58
2023/05/31 07:20:29;;;;;;;;;16.33;13.67;;;;;36.92;24.22;101799.53;6187760;22;51136;-59
2023/05/31 07:22:57;;;;;;;;;14.33;12.00;;;;;37.33;23.70;101798.03;6213848;22;60302;-58
2023/05/31 07:25:23;;;;;;;;;12.00;12.00;;;;;37.83;23.57;101791.41;6214638;22;45347;-58
2023/05/31 07:27:48;;;;;;;;;13.67;12.00;;;;;38.28;23.31;101795.66;6187578;22;47086;-58
2023/05/31 07:30:14;;;;;;;;;15.00;12.00;;;;;38.73;22.63;101797.03;6213449;22;55103;-58
2023/05/31 07:32:40;;;;;;;;;14.50;12.25;;;;;39.10;20.84;101799.53;6183212;23;45373;-58
2023/05/31 07:35:06;;;;;;;;;12.67;10.67;;;;;39.41;18.66;101805.75;6208192;22;45347;-58
2023/05/31 07:37:31;;;;;;;;;12.33;12.00;;;;;39.58;20.94;101796.63;6208257;22;45427;-59
2023/05/31 07:39:57;;;;;;;;;15.00;12.00;;;;;39.74;20.00;101789.44;6180755;23;45344;-58
2023/05/31 07:42:22;;;;;;;;;11.67;11.67;;;;;40.15;19.52;101784.66;6184050;23;45279;-58
2023/05/31 07:44:51;;;;;;;;;10.67;9.67;;;;;40.30;18.90;101782.13;6184561;22;45277;-59
2023/05/31 07:47:16;;;;;;;;;14.67;14.00;;;;;40.63;19.49;101787.94;6182740;23;47223;-58
2023/05/31 07:49:42;;;;;;;;;10.67;10.00;;;;;41.28;19.23;101789.13;6183904;22;45343;-60
2023/05/31 07:52:08;;;;;;;;;10.33;10.33;;;;;42.08;18.44;101796.16;6182578;22;45624;-59
2023/05/31 07:54:33;;;;;;;;;16.33;12.33;;;;;42.55;17.77;101791.78;6208116;22;45497;-58
2023/05/31 07:56:58;;;;;;;;;11.33;11.33;;;;;42.73;17.10;101787.75;6181722;22;73411;-58
2023/05/31 07:59:24;;;;;;;;;11.00;10.00;;;;;43.10;17.24;101798.00;6183445;23;45406;-57
2023/05/31 08:01:50;;;;;;;;;13.33;10.33;;;;;43.48;16.24;101795.88;6181184;23;45398;-59
2023/05/31 08:04:15;;;;;;;;;11.00;11.00;;;;;43.75;16.81;101790.09;6182216;22;45412;-58
2023/05/31 08:06:41;;;;;;;;;13.33;11.33;;;;;44.14;16.24;101791.56;6184357;22;45572;-59
2023/05/31 08:09:08;;;;;;;;;11.33;9.67;;;;;44.69;14.15;101785.34;6206793;22;45653;-61
2023/05/31 08:11:36;;;;;;;;;11.67;9.67;;;;;44.85;13.93;101783.34;6182722;23;45317;-60
2023/05/31 08:14:03;;;;;;;;;13.00;13.00;;;;;45.03;12.68;101779.91;6206373;22;45424;-60
2023/05/31 08:16:28;;;;;;;;;14.67;12.67;;;;;45.31;13.97;101790.75;6182150;23;48054;-58
2023/05/31 08:18:54;;;;;;;;;12.33;12.33;;;;;45.46;14.43;101778.59;6157327;23;45760;-61
2023/05/31 08:21:20;;;;;;;;;12.67;11.00;;;;;46.09;13.05;101791.94;6207537;22;45376;-59
2023/05/31 08:23:45;;;;;;;;;11.33;8.33;;;;;46.65;13.84;101781.28;6183895;22;45351;-59
2023/05/31 08:26:11;;;;;;;;;11.00;10.67;;;;;47.11;11.48;101788.34;6181680;23;47271;-61
2023/05/31 08:28:36;;;;;;;;;11.00;9.33;;;;;47.25;12.16;101780.00;6206834;22;45343;-59
2023/05/31 08:31:01;;;;;;;;;11.00;11.00;;;;;46.82;12.11;101770.41;6187031;22;45227;-62
2023/05/31 08:33:31;;;;;;;;;10.00;10.00;;;;;46.54;12.76;101775.75;6214887;22;45359;-59
2023/05/31 08:35:59;;;;;;;;;8.67;8.67;;;;;47.25;13.19;101772.41;6187012;22;45403;-59
2023/05/31 08:38:28;;;;;;;;;10.67;9.33;;;;;48.00;12.78;101776.34;6187858;22;45384;-62
2023/05/31 08:40:57;;;;;;;;;10.67;8.00;;;;;48.07;12.38;101775.09;6186233;22;45299;-59
2023/05/31 08:43:25;;;;;;;;;12.33;11.33;;;;;48.04;11.44;101766.13;6161702;22;45619;-60
2023/05/31 08:45:51;;;;;;;;;11.33;10.00;;;;;48.33;11.40;101762.25;6161780;22;45370;-59
2023/05/31 08:48:57;;;;;;;;;13.33;11.00;;;;;48.82;10.40;101757.03;6162752;22;45301;-59
2023/05/31 08:51:24;;;;;;;;;9.67;9.67;;;;;48.99;11.75;101756.41;6214740;22;45281;-59
2023/05/31 08:53:51;;;;;;;;;12.00;10.67;;;;;49.02;10.12;101749.31;6187964;22;45648;-59
2023/05/31 08:56:18;;;;;;;;;10.33;7.67;;;;;48.69;10.96;101753.06;6214387;22;45396;-63
2023/05/31 08:58:48;;;;;;;;;12.00;11.67;;;;;48.90;9.92;101749.00;6161865;22;45400;-59
2023/05/31 09:01:13;;;;;;;;;10.00;9.67;;;;;49.45;11.25;101748.06;6187123;22;45338;-62
2023/05/31 09:03:40;;;;;;;;;9.00;9.00;;;;;49.57;10.80;101747.50;6186705;22;45285;-61
2023/05/31 09:06:05;;;;;;;;;12.33;11.33;;;;;49.75;10.75;101746.47;6210285;22;46083;-61
2023/05/31 09:08:33;;;;;;;;;10.67;10.67;;;;;49.75;9.84;101754.13;6212435;22;45463;-62
2023/05/31 09:11:00;;;;;;;;;8.33;8.33;;;;;49.23;11.06;101744.03;6186577;22;45877;-62
2023/05/31 09:13:26;;;;;;;;;8.00;8.00;;;;;49.01;11.44;101750.47;6213179;22;45316;-62
2023/05/31 09:15:52;;;;;;;;;13.33;11.00;;;;;49.16;11.33;101744.47;6185703;22;57775;-62
2023/05/31 09:18:21;;;;;;;;;11.00;10.00;;;;;49.05;10.67;101743.06;6187539;22;45343;-62
2023/05/31 09:20:53;;;;;;;;;10.67;10.00;;;;;48.99;9.83;101738.66;6188271;22;45399;-59
2023/05/31 09:23:18;;;;;;;;;10.00;9.33;;;;;48.91;10.23;101739.38;6162700;22;45342;-60
2023/05/31 09:25:47;;;;;;;;;9.33;9.33;;;;;48.97;11.05;101726.84;6187576;22;45980;-60
2023/05/31 09:28:12;;;;;;;;;8.33;8.33;;;;;49.24;9.98;101734.41;6214881;22;45395;-59
2023/05/31 09:30:38;;;;;;;;;9.00;8.33;;;;;49.18;10.52;101722.41;6162611;22;45697;-59
2023/05/31 09:33:03;;;;;;;;;9.67;6.67;;;;;49.44;10.51;101720.97;6213788;22;66981;-61
2023/05/31 09:35:29;;;;;;;;;9.33;9.33;;;;;49.52;9.60;101720.22;6214982;22;64569;-61
2023/05/31 09:37:56;;;;;;;;;11.00;10.00;;;;;49.40;10.02;101717.13;6187448;22;45326;-62
2023/05/31 09:40:26;;;;;;;;;12.00;11.00;;;;;49.24;9.75;101719.47;6187744;22;45361;-61
2023/05/31 09:42:53;;;;;;;;;10.33;9.67;;;;;49.11;11.09;101722.00;6214448;22;45287;-63
2023/05/31 09:45:19;;;;;;;;;8.00;8.00;;;;;49.72;10.96;101709.59;6214617;22;45296;-62
2023/05/31 09:47:46;;;;;;;;;8.00;8.00;;;;;50.21;9.72;101704.88;6187910;22;45404;-63
2023/05/31 09:50:15;;;;;;;;;10.67;10.67;;;;;50.50;10.05;101700.69;6189118;22;45464;-61
2023/05/31 09:52:43;;;;;;;;;10.00;8.67;;;;;50.49;9.99;101710.31;6163970;22;45884;-62
2023/05/31 09:55:12;;;;;;;;;9.67;9.67;;;;;50.73;9.47;101704.25;6188259;22;45363;-62
2023/05/31 09:57:40;;;;;;;;;8.67;7.00;;;;;51.11;9.40;101706.47;6188366;22;45390;-62
2023/05/31 10:00:12;;;;;;;;;9.25;6.50;;;;;51.21;9.36;101701.63;6188235;22;45787;-60
2023/05/31 10:02:37;;;;;;;;;3.00;3.00;;;;;50.88;9.95;101699.28;6214413;22;45351;-61
2023/05/31 10:05:05;;;;;;;;;9.00;7.75;;;;;50.56;9.43;101702.16;6162089;22;46012;-63
2023/05/31 10:07:31;;;;;;;;;8.75;6.75;;;;;50.91;9.35;101693.75;6214293;22;45363;-60
2023/05/31 10:09:56;;;;;;;;;6.75;6.00;;;;;50.93;9.20;101685.78;6161889;22;45724;-61
2023/05/31 10:12:25;;;;;;;;;7.00;7.00;;;;;50.83;8.72;101693.78;6159536;22;51545;-60
2023/05/31 10:14:55;;;;;;;;;8.00;6.00;;;;;50.83;8.45;101688.94;6187573;22;46397;-61
2023/05/31 10:17:23;;;;;;;;;8.25;8.00;;;;;50.73;9.55;101680.78;6184509;22;45636;-63
2023/05/31 10:19:56;;;;;;;;;9.00;7.00;;;;;51.03;8.40;101684.59;6184624;22;45572;-63
2023/05/31 10:22:23;;;;;;;;;6.75;6.75;;;;;50.76;9.01;101680.09;6213467;22;45578;-61
2023/05/31 10:25:00;;;;;;;;;11.33;8.67;;;;;50.27;8.69;101671.63;6214589;22;45549;-61
2023/05/31 10:27:31;;;;;;;;;6.00;6.00;;;;;49.93;8.62;101671.13;6213702;22;45270;-61
2023/05/31 10:30:04;;;;;;;;;6.75;6.75;;;;;50.14;9.67;101676.22;6162358;22;45477;-63
2023/05/31 10:32:33;;;;;;;;;5.75;5.50;;;;;50.41;9.30;101671.53;6188038;22;45401;-64
2023/05/31 10:34:58;;;;;;;;;8.75;7.00;;;;;50.81;8.40;101671.44;6213261;22;45416;-63
2023/05/31 10:37:25;;;;;;;;;6.00;6.00;;;;;51.14;9.04;101673.84;6187879;22;45478;-59
2023/05/31 10:40:06;;;;;;;;;5.75;4.25;;;;;52.28;7.86;101662.22;6213126;22;45312;-59
2023/05/31 10:42:35;;;;;;;;;7.25;7.25;;;;;53.37;7.55;101659.59;6215352;22;45280;-60
2023/05/31 10:45:06;;;;;;;;;4.25;2.50;;;;;54.62;7.48;101655.72;6188999;22;47843;-59
2023/05/31 10:47:51;;;;;;;;;7.25;6.00;;;;;55.00;6.82;101662.97;6188797;22;45460;-61
2023/05/31 10:50:20;;;;;;;;;7.25;7.00;;;;;55.46;6.88;101656.97;6216877;22;45661;-60
2023/05/31 10:52:50;;;;;;;;;7.25;5.75;;;;;56.31;6.77;101658.69;6164730;22;45325;-60
2023/05/31 10:55:22;;;;;;;;;5.25;4.75;;;;;56.23;6.50;101657.72;6165297;22;45916;-60
2023/05/31 10:57:53;;;;;;;;;6.50;6.50;;;;;55.43;6.36;101649.16;6186738;22;45355;-61
2023/05/31 11:00:19;;;;;;;;;5.50;5.50;;;;;54.24;6.40;101651.22;6187610;22;45478;-60
2023/05/31 11:02:48;;;;;;;;;5.00;5.00;;;;;53.39;6.76;101647.88;6208476;22;45594;-60
2023/05/31 11:05:27;;;;;;;;;7.50;5.50;;;;;52.72;7.02;101634.41;6181078;22;47874;-60
2023/05/31 11:07:54;;;;;;;;;5.50;5.50;;;;;52.58;7.39;101631.03;6210838;22;45629;-60
2023/05/31 11:10:29;;;;;;;;;6.25;6.25;;;;;52.59;7.24;101642.00;6214840;22;45281;-60
2023/05/31 11:13:04;;;;;;;;;7.00;7.00;;;;;52.59;8.07;101636.34;6186083;22;45567;-60